Time;durP1;ratioP1;P1;durP2;ratioP2;P2;SDS_P1;SDS_P2;PMS_P1;PMS_P2;Temp;Humidity;BMP_temperature;BMP_pressure;BME280_temperature;BME280_humidity;BME280_pressure;Samples;Min_cycle;Max_cycle;Signal;HPM_P1;HPM_P2
2023/01/30 00:02:06;;;;;;;2.58;2.38;;;16.50;67.50;;;;;;5049407;28;20041;-18
2023/01/30 00:04:31;;;;;;;3.42;2.35;;;16.40;67.40;;;;;;5039965;28;20041;-16
2023/01/30 00:06:57;;;;;;;2.70;2.50;;;16.30;67.50;;;;;;5039380;28;20101;-18
2023/01/30 00:09:23;;;;;;;2.78;2.30;;;16.40;67.50;;;;;;5036808;28;20389;-15
2023/01/30 00:11:48;;;;;;;2.30;2.10;;;16.50;67.10;;;;;;5052049;28;20048;-19
2023/01/30 00:14:14;;;;;;;3.08;2.22;;;16.40;67.00;;;;;;5044402;28;20040;-16
2023/01/30 00:16:41;;;;;;;2.10;2.00;;;16.40;67.10;;;;;;5046508;28;20098;-16
2023/01/30 00:19:07;;;;;;;1.98;1.88;;;16.40;67.20;;;;;;5054334;28;20543;-17
2023/01/30 00:21:32;;;;;;;2.33;2.13;;;16.20;67.50;;;;;;5041054;28;20078;-21
2023/01/30 00:23:59;;;;;;;2.35;2.15;;;16.20;67.60;;;;;;5038067;28;20523;-15
2023/01/30 00:26:25;;;;;;;2.38;2.28;;;16.10;67.80;;;;;;5039487;28;20543;-16
2023/01/30 00:28:51;;;;;;;2.20;2.10;;;16.20;67.60;;;;;;5030624;28;20080;-16
2023/01/30 00:31:16;;;;;;;2.22;2.10;;;16.10;67.60;;;;;;5029792;28;20069;-17
2023/01/30 00:33:42;;;;;;;2.38;2.17;;;16.20;67.60;;;;;;5031187;28;20041;-16
2023/01/30 00:36:08;;;;;;;2.10;2.00;;;16.20;67.10;;;;;;5044752;28;20512;-17
2023/01/30 00:38:34;;;;;;;2.03;1.92;;;16.00;67.50;;;;;;5045432;28;20049;-21
2023/01/30 00:41:00;;;;;;;1.95;1.85;;;16.00;67.80;;;;;;5046474;28;20036;-17
2023/01/30 00:48:58;;;;;;;2.10;2.00;;;16.00;67.70;;;;;;5042332;28;20170;-18
2023/01/30 00:51:24;;;;;;;2.08;1.98;;;16.00;67.70;;;;;;5030442;28;21946;-19
2023/01/30 00:53:49;;;;;;;2.00;1.90;;;15.90;68.50;;;;;;5037160;28;20056;-16
2023/01/30 00:56:15;;;;;;;2.65;1.90;;;15.80;67.80;;;;;;5041792;28;21184;-26
2023/01/30 00:58:40;;;;;;;1.90;1.80;;;15.90;67.90;;;;;;5050043;28;20065;-16
2023/01/30 01:01:06;;;;;;;1.50;1.40;;;15.80;67.80;;;;;;5049968;28;20048;-16
2023/01/30 01:03:32;;;;;;;1.80;1.70;;;15.80;67.60;;;;;;5035856;28;20524;-23
2023/01/30 01:05:57;;;;;;;1.90;1.80;;;15.90;67.50;;;;;;5037962;28;20039;-17
2023/01/30 01:08:23;;;;;;;1.80;1.70;;;16.00;67.20;;;;;;5044254;28;20052;-17
2023/01/30 01:10:48;;;;;;;1.60;1.50;;;15.90;67.30;;;;;;5034708;28;20129;-17
2023/01/30 01:13:14;;;;;;;1.90;1.80;;;15.90;67.30;;;;;;5041005;28;20378;-16
2023/01/30 01:15:40;;;;;;;1.80;1.70;;;15.90;67.40;;;;;;5051070;28;20511;-15
2023/01/30 01:18:05;;;;;;;1.75;1.65;;;15.80;67.30;;;;;;5033247;28;20048;-19
2023/01/30 01:20:31;;;;;;;1.90;1.80;;;15.90;67.20;;;;;;5028387;28;20055;-17
2023/01/30 01:22:56;;;;;;;1.70;1.60;;;15.80;67.10;;;;;;5025933;28;20114;-16
2023/01/30 01:25:22;;;;;;;3.35;1.70;;;15.80;67.30;;;;;;5034694;28;20061;-16
2023/01/30 01:27:48;;;;;;;1.92;1.83;;;15.80;67.30;;;;;;5036112;28;20044;-23
2023/01/30 01:30:14;;;;;;;2.00;1.70;;;15.90;67.10;;;;;;5028435;28;20114;-17
2023/01/30 01:32:40;;;;;;;1.85;1.73;;;15.80;66.90;;;;;;5030005;28;20503;-16
2023/01/30 01:35:06;;;;;;;1.42;1.33;;;15.80;66.80;;;;;;5046941;28;20178;-17
2023/01/30 01:37:31;;;;;;;1.77;1.67;;;15.80;66.60;;;;;;5039141;28;20962;-16
2023/01/30 01:42:41;;;;;;;1.60;1.50;;;15.90;66.50;;;;;;5030867;28;20043;-17
2023/01/30 01:45:16;;;;;;;1.42;1.33;;;15.80;66.70;;;;;;5028635;28;20072;-16
2023/01/30 01:47:50;;;;;;;1.90;1.35;;;15.80;66.80;;;;;;5035726;28;20041;-16
2023/01/30 01:50:20;;;;;;;1.83;1.73;;;15.80;67.00;;;;;;5029853;28;20487;-21
2023/01/30 01:52:45;;;;;;;1.30;1.30;;;15.70;67.30;;;;;;5030431;28;20045;-20
2023/01/30 01:55:11;;;;;;;2.03;1.85;;;15.80;67.10;;;;;;5030965;28;21713;-26
2023/01/30 01:57:39;;;;;;;1.67;1.58;;;15.90;66.80;;;;;;5042465;28;20069;-22
2023/01/30 02:00:15;;;;;;;1.75;1.65;;;15.80;66.70;;;;;;5042089;28;20499;-29
2023/01/30 02:03:01;;;;;;;1.45;1.35;;;15.80;66.80;;;;;;5050536;28;20120;-24
2023/01/30 02:05:29;;;;;;;1.70;1.60;;;15.80;66.80;;;;;;5026781;28;20456;-39
2023/01/30 02:08:00;;;;;;;2.00;1.90;;;15.80;66.70;;;;;;5042006;28;20431;-16
2023/01/30 02:10:58;;;;;;;1.55;1.45;;;15.80;66.80;;;;;;5032367;28;20546;-21
2023/01/30 02:13:24;;;;;;;1.80;1.70;;;15.70;67.00;;;;;;5037254;28;20049;-36
2023/01/30 02:15:50;;;;;;;1.50;1.40;;;15.70;67.00;;;;;;5026693;28;20052;-41
2023/01/30 02:18:16;;;;;;;1.45;1.35;;;15.60;67.00;;;;;;5045413;28;20415;-18
2023/01/30 02:20:50;;;;;;;1.55;1.50;;;15.70;67.10;;;;;;5024214;28;20585;-25
2023/01/30 02:23:31;;;;;;;1.50;1.40;;;15.70;66.90;;;;;;5027823;28;20132;-22
2023/01/30 02:26:37;;;;;;;1.30;1.20;;;15.60;67.00;;;;;;5027039;28;20056;-26
2023/01/30 02:29:18;;;;;;;1.55;1.45;;;15.70;66.80;;;;;;5027632;28;20067;-26
2023/01/30 02:31:49;;;;;;;1.80;1.70;;;15.70;66.70;;;;;;5028623;28;20057;-21
2023/01/30 02:34:41;;;;;;;1.70;1.60;;;15.70;66.60;;;;;;5032692;28;20431;-16
2023/01/30 02:37:13;;;;;;;1.63;1.52;;;15.60;66.90;;;;;;5034949;28;20507;-18
2023/01/30 02:40:37;;;;;;;1.70;1.60;;;15.60;66.80;;;;;;5042404;28;20052;-16
2023/01/30 02:43:24;;;;;;;1.33;1.30;;;15.60;66.80;;;;;;5026507;28;20052;-17
2023/01/30 02:45:55;;;;;;;2.38;1.40;;;15.60;66.80;;;;;;5032748;28;20372;-16
2023/01/30 02:48:35;;;;;;;1.20;1.10;;;15.70;66.70;;;;;;5016293;28;20044;-22
2023/01/30 02:51:10;;;;;;;1.60;1.50;;;15.60;66.70;;;;;;5042711;28;20044;-17
2023/01/30 02:53:35;;;;;;;2.50;1.50;;;15.60;66.70;;;;;;5041163;28;20040;-15
2023/01/30 02:56:01;;;;;;;1.13;1.13;;;15.60;66.80;;;;;;5044681;28;20062;-13
2023/01/30 02:58:31;;;;;;;1.23;1.23;;;15.60;67.30;;;;;;5026322;28;20128;-25
2023/01/30 03:01:08;;;;;;;1.40;1.30;;;15.60;66.50;;;;;;5024521;28;20052;-28
2023/01/30 03:03:44;;;;;;;1.65;1.55;;;15.60;66.70;;;;;;5041290;28;20130;-16
2023/01/30 03:06:45;;;;;;;1.60;1.50;;;15.50;66.70;;;;;;5030185;28;20129;-23
2023/01/30 03:09:14;;;;;;;1.38;1.27;;;15.60;66.60;;;;;;5033281;28;20559;-22
2023/01/30 03:11:58;;;;;;;1.58;1.48;;;15.60;66.50;;;;;;5041306;28;20048;-24
2023/01/30 03:14:26;;;;;;;1.60;1.50;;;15.60;66.40;;;;;;5008547;28;20082;-35
2023/01/30 03:16:53;;;;;;;1.90;1.35;;;15.60;66.50;;;;;;5033390;28;20303;-31
2023/01/30 03:19:19;;;;;;;1.08;1.08;;;15.60;66.50;;;;;;5024266;28;20128;-19
2023/01/30 03:21:44;;;;;;;1.20;1.15;;;15.60;66.60;;;;;;5025925;28;20404;-26
2023/01/30 03:24:11;;;;;;;1.55;1.45;;;15.60;66.50;;;;;;5033733;28;20043;-25
2023/01/30 03:26:41;;;;;;;1.40;1.30;;;15.50;66.60;;;;;;5032079;28;20132;-16
2023/01/30 03:29:07;;;;;;;1.10;1.10;;;15.60;66.80;;;;;;5021856;28;20044;-25
2023/01/30 03:31:32;;;;;;;1.50;1.40;;;15.50;66.70;;;;;;5022817;28;20055;-27
2023/01/30 03:33:58;;;;;;;1.10;1.10;;;15.60;66.70;;;;;;5022069;28;20049;-21
2023/01/30 03:36:24;;;;;;;1.27;1.20;;;15.60;66.50;;;;;;5027204;28;20487;-34
2023/01/30 03:38:50;;;;;;;1.30;1.20;;;15.50;66.80;;;;;;5036837;28;20751;-16
2023/01/30 03:41:16;;;;;;;1.80;1.33;;;15.50;66.70;;;;;;5023603;28;20063;-34
2023/01/30 03:43:42;;;;;;;1.40;1.30;;;15.50;66.70;;;;;;5043941;28;20053;-22
2023/01/30 03:46:07;;;;;;;1.27;1.17;;;15.50;66.70;;;;;;5042243;28;20133;-22
2023/01/30 03:48:33;;;;;;;1.35;1.25;;;15.50;66.70;;;;;;5041121;28;20519;-22
2023/01/30 03:50:58;;;;;;;1.38;1.33;;;15.50;66.30;;;;;;5048501;28;20040;-33
2023/01/30 03:53:24;;;;;;;1.30;1.30;;;15.50;66.70;;;;;;5039253;28;20185;-16
2023/01/30 03:55:50;;;;;;;3.33;0.93;;;15.40;66.80;;;;;;5047888;28;20040;-21
2023/01/30 03:58:15;;;;;;;1.40;1.05;;;15.50;66.70;;;;;;5046015;28;21772;-40
2023/01/30 04:00:41;;;;;;;1.38;1.27;;;15.40;66.50;;;;;;5034541;28;20052;-16
2023/01/30 04:03:07;;;;;;;1.10;1.08;;;15.60;66.20;;;;;;5044419;28;20200;-18
2023/01/30 04:05:32;;;;;;;1.08;1.00;;;15.50;66.30;;;;;;5044454;28;20049;-18
2023/01/30 04:07:58;;;;;;;1.95;1.30;;;15.50;66.20;;;;;;5026993;28;20052;-17
2023/01/30 04:10:24;;;;;;;1.45;1.35;;;15.50;66.00;;;;;;5026359;28;20105;-16
2023/01/30 04:12:49;;;;;;;1.45;1.20;;;15.50;66.40;;;;;;5028776;28;20041;-31
2023/01/30 04:15:15;;;;;;;1.30;1.10;;;15.50;66.10;;;;;;5031488;28;20053;-29
2023/01/30 04:17:42;;;;;;;1.23;1.05;;;15.60;65.80;;;;;;5033847;28;20457;-25
2023/01/30 04:20:08;;;;;;;1.50;1.40;;;15.60;65.70;;;;;;5026635;28;20515;-23
2023/01/30 04:22:34;;;;;;;1.60;1.45;;;15.60;65.70;;;;;;5047353;28;20040;-21
2023/01/30 04:25:00;;;;;;;1.00;1.00;;;15.70;65.10;;;;;;5049519;28;20153;-20
2023/01/30 04:27:25;;;;;;;1.33;1.23;;;15.60;65.50;;;;;;5045802;28;20711;-22
2023/01/30 04:29:51;;;;;;;0.95;0.95;;;15.70;65.20;;;;;;5048941;28;20032;-20
2023/01/30 04:32:16;;;;;;;1.20;1.10;;;15.60;65.00;;;;;;5047490;28;20064;-16
2023/01/30 04:34:43;;;;;;;1.48;1.38;;;15.60;65.50;;;;;;5039550;28;20590;-22
2023/01/30 04:37:10;;;;;;;1.15;1.10;;;15.60;65.00;;;;;;5038583;28;20063;-20
2023/01/30 04:39:35;;;;;;;1.20;1.10;;;15.60;64.90;;;;;;5028746;28;20633;-17
2023/01/30 04:42:01;;;;;;;1.00;1.00;;;15.60;64.90;;;;;;5034557;28;20518;-27
2023/01/30 04:44:26;;;;;;;0.70;0.70;;;15.70;64.40;;;;;;5046573;28;20055;-15
2023/01/30 04:46:53;;;;;;;1.23;1.13;;;15.60;65.00;;;;;;5033167;28;20057;-17
2023/01/30 04:49:18;;;;;;;0.93;0.93;;;15.60;65.20;;;;;;5025656;28;20056;-24
2023/01/30 04:51:44;;;;;;;0.90;0.90;;;15.60;64.90;;;;;;5026863;28;20470;-14
2023/01/30 04:54:09;;;;;;;0.90;0.90;;;15.70;64.70;;;;;;5024553;28;20041;-17
2023/01/30 04:56:35;;;;;;;0.88;0.88;;;15.70;64.40;;;;;;5029576;28;20087;-15
2023/01/30 04:59:00;;;;;;;1.75;1.27;;;15.60;64.80;;;;;;5039061;28;20040;-16
2023/01/30 05:01:31;;;;;;;0.73;0.73;;;15.60;65.20;;;;;;5044876;28;21957;-27
2023/01/30 05:03:56;;;;;;;1.30;1.10;;;15.60;65.20;;;;;;5047721;28;20145;-33
2023/01/30 05:06:22;;;;;;;1.23;1.13;;;15.50;65.20;;;;;;5046948;28;20044;-23
2023/01/30 05:08:51;;;;;;;1.38;0.90;;;15.60;65.00;;;;;;5047003;28;20059;-28
2023/01/30 05:11:17;;;;;;;1.23;1.13;;;15.60;64.80;;;;;;5047021;28;20052;-19
2023/01/30 05:13:43;;;;;;;1.00;0.95;;;15.50;65.00;;;;;;5048572;28;20056;-20
2023/01/30 05:16:10;;;;;;;1.10;1.00;;;15.50;65.10;;;;;;5037171;28;20738;-33
2023/01/30 05:18:35;;;;;;;1.00;1.00;;;15.50;65.10;;;;;;5026095;28;20117;-24
2023/01/30 05:21:09;;;;;;;0.98;0.88;;;15.60;64.70;;;;;;5026393;28;20040;-34
2023/01/30 05:23:34;;;;;;;0.87;0.87;;;15.50;65.10;;;;;;5027698;28;20045;-19
2023/01/30 05:26:00;;;;;;;0.80;0.80;;;15.30;65.60;;;;;;5027810;28;20295;-23
2023/01/30 05:28:26;;;;;;;0.70;0.70;;;15.40;65.70;;;;;;5025441;28;20079;-37
2023/01/30 05:30:52;;;;;;;0.80;0.80;;;15.30;65.80;;;;;;5026115;28;20052;-19
2023/01/30 05:33:17;;;;;;;0.80;0.80;;;15.30;65.80;;;;;;5043893;28;20490;-16
2023/01/30 05:35:49;;;;;;;0.80;0.73;;;15.30;65.90;;;;;;5042512;28;20140;-17
2023/01/30 05:38:15;;;;;;;0.80;0.70;;;15.30;65.60;;;;;;5026533;28;20131;-22
2023/01/30 05:40:41;;;;;;;0.75;0.75;;;15.30;65.80;;;;;;5040073;28;20179;-25
2023/01/30 05:43:06;;;;;;;1.20;1.10;;;15.30;65.50;;;;;;5046388;28;20102;-30
2023/01/30 05:45:32;;;;;;;1.25;0.85;;;15.30;65.50;;;;;;5025125;28;20080;-37
2023/01/30 05:47:57;;;;;;;0.90;0.90;;;15.40;65.60;;;;;;5057906;28;20112;-17
2023/01/30 05:50:23;;;;;;;1.10;1.00;;;15.30;65.60;;;;;;5046542;28;20050;-29
2023/01/30 05:52:48;;;;;;;0.80;0.80;;;15.20;65.80;;;;;;5044186;28;20071;-29
2023/01/30 05:55:14;;;;;;;0.85;0.85;;;15.30;65.90;;;;;;5045216;28;20060;-28
2023/01/30 05:57:40;;;;;;;0.68;0.68;;;15.30;65.80;;;;;;5042465;28;20060;-19
2023/01/30 06:00:06;;;;;;;0.90;0.90;;;15.30;65.80;;;;;;5046953;28;20489;-18
2023/01/30 06:02:32;;;;;;;1.08;0.70;;;15.30;65.60;;;;;;5034391;28;20115;-25
2023/01/30 06:04:57;;;;;;;1.08;1.00;;;15.30;65.80;;;;;;5034968;28;20411;-16
2023/01/30 06:07:23;;;;;;;0.80;0.80;;;15.30;65.80;;;;;;5032073;28;20272;-36
2023/01/30 06:09:48;;;;;;;1.10;1.00;;;15.20;66.10;;;;;;5028720;28;20127;-16
2023/01/30 06:12:14;;;;;;;1.00;0.90;;;15.30;66.20;;;;;;5026632;28;20053;-23
2023/01/30 06:14:39;;;;;;;0.60;0.60;;;15.30;66.10;;;;;;5050383;28;20588;-30
2023/01/30 06:17:05;;;;;;;0.80;0.80;;;15.30;66.20;;;;;;5047620;28;20052;-22
2023/01/30 06:19:31;;;;;;;0.80;0.80;;;15.30;66.20;;;;;;5040354;28;20179;-33
2023/01/30 06:21:56;;;;;;;1.65;0.77;;;15.30;66.20;;;;;;5035715;28;20411;-23
2023/01/30 06:24:22;;;;;;;0.82;0.82;;;15.30;66.20;;;;;;5038700;28;20188;-19
2023/01/30 06:26:47;;;;;;;0.95;0.90;;;15.40;66.30;;;;;;5029847;28;20037;-19
2023/01/30 06:29:13;;;;;;;0.70;0.68;;;15.40;66.10;;;;;;5044984;28;20049;-13
2023/01/30 06:31:39;;;;;;;0.75;0.73;;;15.30;66.30;;;;;;5030484;28;20131;-21
2023/01/30 06:34:04;;;;;;;0.85;0.85;;;15.30;66.50;;;;;;5036107;28;20067;-22
2023/01/30 06:36:30;;;;;;;0.60;0.60;;;15.20;66.60;;;;;;5038293;28;20053;-20
2023/01/30 06:38:56;;;;;;;0.70;0.70;;;15.30;66.50;;;;;;5029462;28;20125;-21
2023/01/30 06:41:21;;;;;;;1.10;1.10;;;15.40;66.40;;;;;;5029557;28;20138;-19
2023/01/30 06:43:47;;;;;;;0.90;0.90;;;15.30;66.30;;;;;;5035545;28;20045;-23
2023/01/30 06:46:13;;;;;;;0.60;0.60;;;15.30;66.40;;;;;;5026558;28;20101;-15
2023/01/30 06:48:38;;;;;;;0.80;0.80;;;15.30;66.40;;;;;;5040467;28;20344;-24
2023/01/30 06:51:04;;;;;;;0.70;0.70;;;15.30;66.50;;;;;;5033625;28;20048;-22
2023/01/30 06:53:29;;;;;;;0.80;0.80;;;15.30;66.60;;;;;;5029999;28;20124;-16
2023/01/30 06:55:57;;;;;;;1.00;1.00;;;15.20;66.60;;;;;;5045008;28;20154;-27
2023/01/30 06:58:22;;;;;;;0.82;0.82;;;15.30;66.40;;;;;;5039356;28;20055;-22
2023/01/30 07:00:48;;;;;;;0.80;0.80;;;15.40;66.30;;;;;;5028116;28;20053;-20
2023/01/30 07:03:14;;;;;;;0.65;0.63;;;15.50;66.30;;;;;;5029724;28;20468;-18
2023/01/30 07:05:40;;;;;;;0.90;0.90;;;15.50;66.30;;;;;;5047736;28;20048;-27
2023/01/30 07:08:06;;;;;;;0.80;0.80;;;15.40;67.30;;;;;;5042021;28;20045;-15
2023/01/30 07:10:32;;;;;;;0.85;0.85;;;15.30;66.40;;;;;;5047788;28;20055;-22
2023/01/30 07:12:58;;;;;;;0.68;0.60;;;15.30;66.60;;;;;;5049045;28;20392;-30
2023/01/30 07:15:24;;;;;;;0.70;0.70;;;15.30;66.60;;;;;;5040307;28;20067;-15
2023/01/30 07:17:49;;;;;;;0.65;0.65;;;15.30;66.50;;;;;;5047877;28;20052;-20
2023/01/30 07:20:15;;;;;;;0.80;0.80;;;15.30;66.40;;;;;;5048663;28;20048;-15
2023/01/30 07:22:41;;;;;;;0.75;0.75;;;15.30;66.70;;;;;;5027473;28;20060;-32
2023/01/30 07:25:07;;;;;;;0.90;0.90;;;15.20;66.80;;;;;;5031512;28;20052;-16
2023/01/30 07:27:32;;;;;;;0.90;0.90;;;15.40;66.60;;;;;;5046928;28;20037;-16
2023/01/30 07:29:58;;;;;;;0.85;0.85;;;15.40;66.30;;;;;;5036191;28;20098;-27
2023/01/30 07:32:24;;;;;;;0.77;0.77;;;15.40;66.40;;;;;;5027481;28;20800;-28
2023/01/30 07:34:49;;;;;;;0.63;0.63;;;15.30;66.60;;;;;;5026037;28;20776;-30
2023/01/30 07:37:15;;;;;;;1.80;0.90;;;15.40;66.40;;;;;;5027607;28;20662;-16
2023/01/30 07:39:41;;;;;;;0.88;0.77;;;15.40;66.30;;;;;;5028950;28;20095;-19
2023/01/30 07:42:06;;;;;;;0.73;0.73;;;15.40;66.10;;;;;;5046066;28;21748;-23
2023/01/30 07:44:33;;;;;;;0.60;0.60;;;15.30;66.30;;;;;;5047491;28;23124;-15
2023/01/30 07:46:59;;;;;;;1.92;0.70;;;15.30;66.70;;;;;;5034207;28;20594;-29
2023/01/30 07:49:24;;;;;;;0.70;0.70;;;15.40;66.30;;;;;;5026815;28;20132;-25
2023/01/30 07:51:50;;;;;;;1.10;0.85;;;15.40;67.20;;;;;;5028249;28;20534;-29
2023/01/30 07:54:16;;;;;;;0.60;0.60;;;15.30;66.40;;;;;;5025630;28;20102;-23
2023/01/30 07:56:41;;;;;;;0.80;0.80;;;15.30;66.50;;;;;;5027864;28;20044;-16
2023/01/30 07:59:09;;;;;;;0.82;0.65;;;15.30;66.70;;;;;;5033913;28;20049;-16
2023/01/30 08:01:34;;;;;;;0.68;0.68;;;15.30;66.60;;;;;;5060682;28;20167;-18
2023/01/30 08:04:00;;;;;;;0.60;0.60;;;15.30;66.60;;;;;;5035377;28;20053;-20
2023/01/30 08:06:26;;;;;;;1.40;0.70;;;15.50;66.30;;;;;;5054579;28;20086;-17
2023/01/30 08:08:51;;;;;;;0.70;0.70;;;15.40;66.20;;;;;;5064736;28;20499;-24
2023/01/30 08:11:17;;;;;;;2.55;0.73;;;15.50;66.20;;;;;;5049532;28;20033;-15
2023/01/30 08:13:42;;;;;;;0.68;0.60;;;15.50;66.20;;;;;;5042331;28;20045;-18
2023/01/30 08:16:08;;;;;;;0.70;0.63;;;15.30;66.40;;;;;;5044673;28;20052;-24
2023/01/30 08:18:34;;;;;;;0.60;0.50;;;15.60;66.00;;;;;;5053268;28;20106;-16
2023/01/30 08:21:00;;;;;;;0.60;0.60;;;15.60;65.90;;;;;;5060020;28;20514;-16
2023/01/30 08:23:26;;;;;;;0.50;0.50;;;15.50;66.30;;;;;;5065183;28;20045;-26
2023/01/30 08:25:55;;;;;;;0.68;0.68;;;15.50;66.30;;;;;;5039328;28;20067;-15
2023/01/30 08:28:21;;;;;;;4.32;0.60;;;15.60;66.30;;;;;;5046874;28;20037;-23
2023/01/30 08:30:47;;;;;;;0.70;0.60;;;15.40;66.30;;;;;;5046451;28;20158;-15
2023/01/30 08:33:14;;;;;;;1.40;0.70;;;15.40;66.70;;;;;;5045649;28;20051;-19
2023/01/30 08:35:39;;;;;;;0.63;0.60;;;15.40;66.70;;;;;;5048901;28;20049;-19
2023/01/30 08:38:07;;;;;;;0.77;0.77;;;15.40;66.70;;;;;;5057349;28;20120;-23
2023/01/30 08:40:34;;;;;;;0.60;0.60;;;15.30;67.00;;;;;;5049384;28;20051;-14
2023/01/30 08:42:59;;;;;;;1.15;0.68;;;15.30;67.00;;;;;;5049305;28;20393;-23
2023/01/30 08:45:25;;;;;;;0.70;0.70;;;15.20;67.10;;;;;;5049289;28;20071;-19
2023/01/30 08:47:50;;;;;;;0.70;0.60;;;15.20;66.90;;;;;;5058329;28;20195;-19
2023/01/30 08:50:16;;;;;;;0.70;0.70;;;15.30;67.00;;;;;;5050113;28;20086;-19
2023/01/30 08:52:41;;;;;;;0.60;0.60;;;15.20;67.20;;;;;;5048683;28;20052;-17
2023/01/30 08:55:08;;;;;;;0.57;0.57;;;15.20;67.10;;;;;;5057460;28;20036;-23
2023/01/30 08:57:34;;;;;;;0.75;0.70;;;15.30;67.10;;;;;;5059525;28;20048;-18
2023/01/30 08:59:59;;;;;;;0.77;0.55;;;15.30;66.80;;;;;;5048829;28;20049;-15
2023/01/30 09:02:25;;;;;;;0.68;0.68;;;15.20;67.20;;;;;;5048280;28;20392;-15
2023/01/30 09:04:50;;;;;;;0.73;0.50;;;15.20;67.00;;;;;;5052864;28;20119;-16
2023/01/30 09:07:16;;;;;;;1.27;0.70;;;15.20;67.10;;;;;;5054130;28;20049;-28
2023/01/30 09:09:42;;;;;;;0.45;0.45;;;15.20;67.00;;;;;;5059909;28;20119;-16
2023/01/30 09:12:07;;;;;;;0.63;0.40;;;15.10;67.10;;;;;;5063681;28;20041;-27
2023/01/30 09:14:33;;;;;;;0.70;0.70;;;15.10;67.30;;;;;;5048052;28;20048;-16
2023/01/30 09:16:58;;;;;;;0.50;0.50;;;15.10;67.30;;;;;;5053248;28;20731;-16
2023/01/30 09:19:25;;;;;;;0.50;0.50;;;15.10;67.40;;;;;;5060357;28;20045;-16
2023/01/30 09:21:51;;;;;;;0.75;0.60;;;15.10;67.20;;;;;;5060158;28;20534;-20
2023/01/30 09:24:16;;;;;;;1.00;0.43;;;15.10;67.30;;;;;;5070289;28;20029;-15
2023/01/30 09:26:44;;;;;;;0.60;0.60;;;15.10;67.10;;;;;;5051246;28;20048;-15
2023/01/30 09:29:13;;;;;;;0.50;0.50;;;15.10;67.30;;;;;;5052344;28;20067;-19
2023/01/30 09:31:39;;;;;;;0.75;0.50;;;15.10;67.20;;;;;;5067907;28;20048;-15
2023/01/30 09:34:04;;;;;;;0.60;0.60;;;15.10;67.30;;;;;;5066908;28;20030;-23
2023/01/30 09:36:30;;;;;;;0.68;0.68;;;15.10;67.20;;;;;;5063937;28;20044;-14
2023/01/30 09:38:55;;;;;;;0.85;0.52;;;15.10;67.10;;;;;;5063403;28;20037;-16
2023/01/30 09:41:58;;;;;;;0.70;0.50;;;15.00;67.10;;;;;;5049139;28;21004;-14
2023/01/30 09:44:43;;;;;;;1.58;0.47;;;15.10;66.90;;;;;;5051104;28;20045;-17
2023/01/30 09:47:12;;;;;;;0.60;0.60;;;15.20;66.70;;;;;;5048480;28;20048;-21
2023/01/30 09:49:52;;;;;;;0.40;0.40;;;15.20;66.80;;;;;;5048295;28;20052;-15
2023/01/30 09:52:21;;;;;;;0.50;0.50;;;15.10;66.90;;;;;;5047002;28;20044;-16
2023/01/30 09:54:46;;;;;;;0.50;0.50;;;15.10;66.90;;;;;;5047652;28;20037;-20
2023/01/30 09:57:21;;;;;;;0.50;0.50;;;15.10;67.00;;;;;;5048427;28;20049;-23
2023/01/30 09:59:51;;;;;;;0.93;0.60;;;15.10;66.80;;;;;;5066470;28;20067;-19
2023/01/30 10:02:19;;;;;;;0.50;0.50;;;15.10;66.80;;;;;;5087795;28;20185;-15
2023/01/30 10:04:45;;;;;;;0.60;0.60;;;15.00;66.70;;;;;;5065114;28;20044;-14
2023/01/30 10:07:38;;;;;;;0.30;0.30;;;15.10;67.50;;;;;;5043046;28;20033;-34
2023/01/30 10:10:42;;;;;;;0.40;0.40;;;15.10;66.60;;;;;;5066564;28;20098;-24
2023/01/30 10:13:16;;;;;;;1.48;0.40;;;15.10;66.50;;;;;;5050504;28;20086;-15
2023/01/30 10:16:07;;;;;;;1.05;0.90;;;15.10;66.40;;;;;;5048624;28;20095;-15
2023/01/30 10:19:13;;;;;;;0.40;0.40;;;15.10;66.50;;;;;;5051658;28;20052;-26
2023/01/30 10:21:42;;;;;;;0.30;0.30;;;15.00;66.70;;;;;;5048780;28;20041;-15
2023/01/30 10:24:25;;;;;;;0.50;0.50;;;15.00;66.80;;;;;;5048361;28;20518;-15
2023/01/30 10:26:51;;;;;;;0.50;0.50;;;15.10;66.70;;;;;;5046045;28;20063;-23
2023/01/30 10:29:21;;;;;;;0.60;0.60;;;15.10;66.60;;;;;;5056323;28;20500;-15
2023/01/30 10:31:50;;;;;;;0.63;0.52;;;15.20;66.10;;;;;;5046802;28;20045;-17
2023/01/30 10:34:24;;;;;;;0.60;0.60;;;15.10;66.30;;;;;;5065350;28;20048;-19
2023/01/30 10:37:09;;;;;;;0.60;0.60;;;15.10;66.40;;;;;;5054412;28;20084;-17
2023/01/30 10:39:55;;;;;;;0.60;0.60;;;15.10;66.50;;;;;;5062058;28;20120;-15
2023/01/30 10:42:43;;;;;;;0.40;0.40;;;15.00;66.50;;;;;;5056481;28;20116;-19
2023/01/30 10:45:20;;;;;;;0.43;0.43;;;15.00;66.40;;;;;;5044718;28;20064;-16
2023/01/30 10:47:57;;;;;;;1.10;0.40;;;15.10;66.50;;;;;;5071616;28;20048;-16
2023/01/30 10:50:28;;;;;;;0.38;0.30;;;15.00;66.30;;;;;;5055022;28;20043;-16
2023/01/30 10:53:42;;;;;;;0.50;0.50;;;15.10;66.20;;;;;;5050717;28;20033;-15
2023/01/30 10:56:30;;;;;;;0.50;0.50;;;15.10;66.10;;;;;;4988938;28;20041;-15
2023/01/30 10:59:34;;;;;;;0.45;0.45;;;15.00;66.10;;;;;;4981068;28;20460;-18
2023/01/30 11:02:03;;;;;;;0.30;0.30;;;15.10;66.30;;;;;;4987891;28;20041;-18
2023/01/30 11:04:33;;;;;;;0.50;0.38;;;15.10;66.20;;;;;;5004975;28;20042;-14
2023/01/30 11:06:59;;;;;;;0.43;0.43;;;15.00;66.20;;;;;;5005075;28;20037;-15
2023/01/30 11:09:45;;;;;;;0.50;0.40;;;15.00;66.30;;;;;;5005811;28;20042;-22
2023/01/30 11:12:11;;;;;;;0.30;0.30;;;15.00;66.00;;;;;;5003406;28;20045;-41
2023/01/30 11:14:57;;;;;;;0.35;0.35;;;15.00;66.20;;;;;;5000830;28;20046;-28
2023/01/30 11:17:34;;;;;;;0.68;0.57;;;15.00;65.80;;;;;;5001906;28;20046;-15
2023/01/30 11:20:29;;;;;;;0.60;0.50;;;15.00;66.20;;;;;;5002305;28;20049;-16
2023/01/30 11:23:06;;;;;;;0.47;0.40;;;15.00;65.70;;;;;;5004047;28;20129;-15
2023/01/30 11:25:33;;;;;;;0.40;0.40;;;15.10;65.70;;;;;;5001842;28;20072;-13
2023/01/30 11:28:04;;;;;;;0.40;0.40;;;15.20;65.60;;;;;;5052759;28;20156;-15
2023/01/30 11:30:32;;;;;;;0.30;0.30;;;15.20;65.50;;;;;;5056955;28;20045;-12
2023/01/30 11:33:09;;;;;;;0.50;0.50;;;15.30;65.90;;;;;;5052445;28;20048;-15
2023/01/30 11:35:39;;;;;;;0.60;0.60;;;15.40;66.10;;;;;;5060711;28;20052;-14
2023/01/30 11:38:23;;;;;;;1.95;0.70;;;15.40;66.40;;;;;;5051387;28;20043;-19
2023/01/30 11:40:48;;;;;;;0.70;0.70;;;15.40;66.60;;;;;;5038990;28;20146;-19
2023/01/30 11:43:14;;;;;;;0.60;0.60;;;15.40;66.50;;;;;;5034556;28;21537;-17
2023/01/30 11:45:42;;;;;;;0.77;0.77;;;15.40;66.70;;;;;;5042922;28;20618;-16
2023/01/30 11:48:27;;;;;;;0.57;0.50;;;15.50;66.50;;;;;;5049164;28;20055;-18
2023/01/30 11:51:04;;;;;;;0.50;0.50;;;15.50;66.50;;;;;;5045204;28;20135;-16
2023/01/30 11:53:42;;;;;;;0.80;0.57;;;15.70;66.00;;;;;;5042940;28;20045;-17
2023/01/30 11:56:14;;;;;;;0.50;0.50;;;15.50;66.10;;;;;;5054155;28;20043;-16
2023/01/30 11:58:40;;;;;;;0.77;0.50;;;15.40;66.40;;;;;;5058367;28;20064;-16
2023/01/30 12:01:08;;;;;;;0.57;0.57;;;15.40;66.80;;;;;;5054212;28;20801;-29
2023/01/30 12:03:43;;;;;;;0.70;0.70;;;15.40;66.50;;;;;;5051801;28;20025;-16
2023/01/30 12:06:09;;;;;;;1.02;0.50;;;15.40;66.60;;;;;;5049818;28;20064;-15
2023/01/30 12:08:39;;;;;;;0.60;0.60;;;15.50;66.60;;;;;;5053866;28;20061;-17
2023/01/30 12:11:06;;;;;;;2.22;0.80;;;15.50;66.80;;;;;;5053368;28;20083;-15
2023/01/30 12:13:44;;;;;;;0.50;0.50;;;15.50;66.60;;;;;;5055489;28;20036;-20
2023/01/30 12:16:31;;;;;;;0.60;0.60;;;15.60;66.50;;;;;;5064006;28;20052;-15
2023/01/30 12:19:19;;;;;;;0.60;0.60;;;15.60;66.20;;;;;;5060172;28;20055;-15
2023/01/30 12:22:23;;;;;;;0.40;0.40;;;15.50;66.80;;;;;;5068971;28;20056;-14
2023/01/30 12:24:57;;;;;;;2.05;0.70;;;15.50;67.00;;;;;;5048486;28;20061;-24
2023/01/30 12:27:56;;;;;;;1.67;0.50;;;15.50;66.90;;;;;;5050677;28;20029;-28
2023/01/30 12:30:35;;;;;;;0.50;0.50;;;15.50;66.70;;;;;;5048332;28;20036;-28
2023/01/30 12:33:03;;;;;;;0.77;0.60;;;15.40;66.70;;;;;;5046373;28;20122;-26
2023/01/30 12:35:54;;;;;;;0.55;0.55;;;15.40;66.90;;;;;;5050529;28;20044;-32
2023/01/30 12:38:28;;;;;;;0.40;0.40;;;15.40;66.70;;;;;;5059822;28;20093;-27
2023/01/30 12:41:24;;;;;;;0.52;0.50;;;15.40;66.30;;;;;;5091875;28;20064;-23
2023/01/30 12:44:03;;;;;;;0.50;0.47;;;15.40;66.10;;;;;;5049134;28;20036;-15
2023/01/30 12:46:47;;;;;;;0.82;0.50;;;15.50;66.50;;;;;;5081630;28;20592;-16
2023/01/30 12:49:40;;;;;;;0.40;0.40;;;15.40;66.20;;;;;;5071239;28;20507;-15
2023/01/30 12:52:24;;;;;;;0.40;0.40;;;15.40;66.60;;;;;;5046434;28;20041;-16
2023/01/30 12:55:08;;;;;;;0.40;0.40;;;15.40;66.50;;;;;;5053962;28;20098;-21
2023/01/30 12:57:51;;;;;;;0.40;0.40;;;15.40;66.30;;;;;;5050558;28;20443;-21
2023/01/30 13:00:36;;;;;;;0.82;0.40;;;15.40;66.50;;;;;;5059668;28;20053;-15
2023/01/30 13:03:20;;;;;;;0.20;0.20;;;15.30;66.50;;;;;;5045565;28;20056;-19
2023/01/30 13:05:55;;;;;;;0.30;0.30;;;15.30;66.40;;;;;;5046056;28;20132;-25
2023/01/30 13:08:52;;;;;;;1.17;0.52;;;15.30;66.30;;;;;;5053318;28;20045;-17
2023/01/30 13:11:58;;;;;;;0.40;0.40;;;15.30;66.30;;;;;;5051994;28;20071;-15
2023/01/30 13:14:33;;;;;;;0.30;0.30;;;15.40;66.10;;;;;;5045228;28;20466;-15